Time;durP1;ratioP1;P1;durP2;ratioP2;P2;SDS_P1;SDS_P2;PMS_P1;PMS_P2;Temp;Humidity;BMP_temperature;BMP_pressure;BME280_temperature;BME280_humidity;BME280_pressure;Samples;Min_cycle;Max_cycle;Signal;HPM_P1;HPM_P2
2022/01/25 00:24:20;;;;;;;43.90;20.13;;;;;;;2.38;100.00;101930.28;5034790;28;20044;-77
2022/01/25 00:24:25;;;;;;;44.60;19.42;;;;;;;2.39;100.00;101932.06;5034173;28;20040;-77
2022/01/25 00:27:00;;;;;;;42.90;18.20;;;;;;;2.40;100.00;101929.47;5034354;28;20467;-77
2022/01/25 00:32:05;;;;;;;42.63;19.27;;;;;;;2.40;100.00;101931.19;5034639;28;20387;-77
2022/01/25 00:34:31;;;;;;;44.10;19.67;;;;;;;2.40;100.00;101933.84;5034259;28;20102;-77
2022/01/25 00:36:56;;;;;;;39.22;17.85;;;;;;;2.40;100.00;101933.84;5034436;28;20025;-77
2022/01/25 00:39:21;;;;;;;37.78;18.23;;;;;;;2.41;100.00;101928.63;5034423;28;20025;-77
2022/01/25 00:41:47;;;;;;;40.75;18.48;;;;;;;2.44;100.00;101941.00;5034037;28;20022;-77
2022/01/25 00:44:13;;;;;;;38.80;17.85;;;;;;;2.42;100.00;101932.16;5034110;28;20088;-77
2022/01/25 00:46:38;;;;;;;40.78;18.33;;;;;;;2.44;100.00;101933.09;5033906;28;20083;-77
2022/01/25 00:49:04;;;;;;;43.65;20.05;;;;;;;2.42;100.00;101934.81;5034086;28;20097;-77
2022/01/25 00:54:27;;;;;;;41.05;18.95;;;;;;;2.41;100.00;101922.47;5034003;28;20051;-77
2022/01/25 00:56:52;;;;;;;40.30;19.08;;;;;;;2.43;100.00;101926.03;5032506;28;20025;-77
2022/01/25 00:59:30;;;;;;;42.72;18.65;;;;;;;2.42;100.00;101922.50;5033813;28;20037;-77
2022/01/25 01:01:58;;;;;;;42.70;18.90;;;;;;;2.44;100.00;101925.19;5031341;28;20060;-77
2022/01/25 01:04:24;;;;;;;38.70;19.00;;;;;;;2.42;100.00;101926.91;5033675;28;20033;-77
2022/01/25 01:06:51;;;;;;;43.78;18.90;;;;;;;2.40;100.00;101924.19;5034505;28;20025;-77
2022/01/25 01:09:19;;;;;;;42.28;19.27;;;;;;;2.40;100.00;101918.91;5033891;28;20029;-77
2022/01/25 01:11:55;;;;;;;42.40;20.17;;;;;;;2.39;100.00;101918.88;5034452;28;20022;-77
2022/01/25 01:31:03;;;;;;;41.88;19.27;;;;;;;2.39;100.00;101906.59;5033315;28;20076;-77
2022/01/25 01:36:38;;;;;;;42.00;20.52;;;;;;;2.39;100.00;101905.69;5033585;28;20052;-77
2022/01/25 01:43:57;;;;;;;47.60;23.60;;;;;;;2.33;100.00;101896.75;5033139;28;20025;-77
2022/01/25 01:46:36;;;;;;;46.13;20.27;;;;;;;2.32;100.00;101894.97;5034015;28;20032;-77
2022/01/25 01:49:05;;;;;;;43.85;20.50;;;;;;;2.33;100.00;101888.84;5032318;28;20136;-77
2022/01/25 01:51:34;;;;;;;47.50;21.50;;;;;;;2.33;100.00;101890.59;5032191;28;20037;-77
2022/01/25 01:54:12;;;;;;;48.45;21.98;;;;;;;2.32;100.00;101894.97;5033487;28;20029;-77
2022/01/25 01:56:39;;;;;;;47.17;20.63;;;;;;;2.31;100.00;101885.28;5033608;28;20530;-78
2022/01/25 01:59:09;;;;;;;47.15;21.05;;;;;;;2.31;100.00;101876.47;5034156;28;20107;-77
2022/01/25 02:01:36;;;;;;;45.08;20.52;;;;;;;2.31;100.00;101882.66;5033002;28;20501;-77
2022/01/25 02:04:05;;;;;;;46.63;21.17;;;;;;;2.31;100.00;101880.00;5033408;28;20127;-77
2022/01/25 02:06:31;;;;;;;46.05;19.98;;;;;;;2.34;100.00;101884.47;5033652;28;20035;-77
2022/01/25 02:08:56;;;;;;;46.40;20.42;;;;;;;2.33;100.00;101880.94;5031550;28;20030;-77
2022/01/25 02:11:22;;;;;;;42.17;19.70;;;;;;;2.34;100.00;101877.47;5032014;28;20433;-77
2022/01/25 02:13:48;;;;;;;43.80;19.70;;;;;;;2.33;100.00;101875.66;5035238;28;20060;-77
2022/01/25 02:24:30;;;;;;;;;;;;;;;2.27;100.00;101871.97;5037753;28;20040;-77
2022/01/25 02:26:57;;;;;;;44.83;21.30;;;;;;;2.23;100.00;101876.25;5036390;28;19932;-77
2022/01/25 02:29:23;;;;;;;44.25;20.13;;;;;;;2.20;100.00;101877.03;5037506;28;20053;-78
2022/01/25 02:31:48;;;;;;;44.67;20.85;;;;;;;2.19;100.00;101871.72;5036817;28;20024;-77
2022/01/25 02:34:13;;;;;;;49.30;21.05;;;;;;;2.15;100.00;101875.09;5036478;28;20029;-77
2022/01/25 02:36:39;;;;;;;48.50;21.80;;;;;;;2.10;100.00;101877.59;5035144;28;20055;-78
2022/01/25 02:39:04;;;;;;;50.33;22.23;;;;;;;2.07;100.00;101870.50;5036443;28;20128;-78
2022/01/25 02:41:30;;;;;;;60.78;24.10;;;;;;;2.09;100.00;101866.16;5034872;28;20048;-77
2022/01/25 02:43:56;;;;;;;74.82;26.90;;;;;;;2.08;100.00;101874.94;5036212;28;20545;-77
2022/01/25 02:48:58;;;;;;;61.95;25.92;;;;;;;2.04;100.00;101865.13;5036196;28;20379;-77
2022/01/25 02:51:28;;;;;;;67.63;28.33;;;;;;;2.04;100.00;101865.13;5034296;28;20049;-77
2022/01/25 02:53:53;;;;;;;68.93;28.90;;;;;;;2.03;100.00;101855.44;5035831;28;20029;-77
2022/01/25 02:56:20;;;;;;;67.47;28.63;;;;;;;1.99;100.00;101858.81;5034588;28;20108;-77
2022/01/25 02:58:46;;;;;;;62.60;27.98;;;;;;;2.00;100.00;101860.63;5035637;28;20474;-77
2022/01/25 03:01:12;;;;;;;63.17;27.20;;;;;;;1.98;100.00;101860.56;5036306;28;20029;-77
2022/01/25 03:03:38;;;;;;;64.43;27.55;;;;;;;1.93;100.00;101856.91;5036080;28;20040;-77
2022/01/25 03:06:04;;;;;;;62.72;26.30;;;;;;;1.91;100.00;101855.94;5035954;28;20026;-77
2022/01/25 03:08:30;;;;;;;62.03;27.77;;;;;;;1.91;100.00;101860.34;5036067;28;20032;-77
2022/01/25 03:10:56;;;;;;;70.88;29.35;;;;;;;1.85;100.00;101856.66;5035978;28;20025;-77
2022/01/25 03:13:27;;;;;;;72.82;30.92;;;;;;;1.82;100.00;101855.66;5036199;28;20032;-77
2022/01/25 03:15:58;;;;;;;68.88;31.08;;;;;;;1.85;100.00;101851.38;5034528;28;20025;-77
2022/01/25 03:18:38;;;;;;;69.82;30.60;;;;;;;1.81;100.00;101854.75;5034364;28;20025;-77
2022/01/25 03:21:22;;;;;;;76.05;32.53;;;;;;;1.83;100.00;101855.69;5033959;28;20021;-77
2022/01/25 03:23:51;;;;;;;72.85;31.80;;;;;;;1.84;100.00;101851.31;5035562;28;20116;-77
2022/01/25 03:26:17;;;;;;;68.57;31.50;;;;;;;1.84;100.00;101854.84;5034994;28;20044;-77
2022/01/25 03:28:43;;;;;;;71.93;33.08;;;;;;;1.83;100.00;101847.78;5035607;28;20021;-78
2022/01/25 03:31:08;;;;;;;69.53;31.58;;;;;;;1.88;100.00;101848.81;5033992;28;20382;-77
2022/01/25 03:33:34;;;;;;;72.55;30.85;;;;;;;1.87;100.00;101851.44;5035343;28;20130;-77
2022/01/25 03:36:00;;;;;;;72.15;31.50;;;;;;;1.80;100.00;101845.09;5035430;28;20028;-77
2022/01/25 03:38:25;;;;;;;68.95;31.45;;;;;;;1.81;100.00;101849.47;5034043;28;20352;-77
2022/01/25 03:40:50;;;;;;;75.82;35.05;;;;;;;1.82;100.00;101843.38;5034939;28;20497;-77
2022/01/25 03:43:18;;;;;;;74.63;33.53;;;;;;;1.77;100.00;101843.25;5033973;28;20036;-77
2022/01/25 03:45:56;;;;;;;72.50;33.33;;;;;;;1.79;100.00;101845.91;5033984;28;20025;-77
2022/01/25 03:50:49;;;;;;;69.03;32.55;;;;;;;1.75;100.00;101849.31;5035355;28;20026;-77
2022/01/25 03:53:16;;;;;;;75.18;33.83;;;;;;;1.71;100.00;101857.94;5033788;28;20033;-77
2022/01/25 03:55:41;;;;;;;76.65;33.67;;;;;;;1.71;100.00;101863.19;5034946;28;20478;-77
2022/01/25 03:58:07;;;;;;;79.63;34.35;;;;;;;1.71;100.00;101853.56;5033629;28;20083;-77
2022/01/25 04:00:35;;;;;;;81.88;35.78;;;;;;;1.62;100.00;101862.09;5033373;28;20358;-77
2022/01/25 04:03:05;;;;;;;86.63;35.58;;;;;;;1.56;100.00;101853.97;5035127;28;20033;-77
2022/01/25 04:05:37;;;;;;;82.57;35.95;;;;;;;1.55;100.00;101862.69;5034574;28;20095;-77
2022/01/25 04:08:04;;;;;;;86.57;36.30;;;;;;;1.53;100.00;101860.03;5035038;28;20018;-77
2022/01/25 04:10:29;;;;;;;86.75;37.25;;;;;;;1.53;100.00;101856.50;5034609;28;20028;-77
2022/01/25 04:12:55;;;;;;;83.22;35.85;;;;;;;1.50;100.00;101865.19;5034347;28;20026;-77
2022/01/25 04:15:20;;;;;;;81.78;35.90;;;;;;;1.47;100.00;101854.53;5032768;28;20022;-77
2022/01/25 04:17:51;;;;;;;94.45;39.10;;;;;;;1.45;100.00;101864.13;5034272;28;20033;-77
2022/01/25 04:20:22;;;;;;;85.05;37.13;;;;;;;1.50;100.00;101861.66;5032902;28;20033;-77
2022/01/25 04:25:31;;;;;;;86.85;37.95;;;;;;;1.47;100.00;101853.69;5035015;28;20151;-77
2022/01/25 04:27:57;;;;;;;90.75;36.95;;;;;;;1.51;100.00;101855.56;5033927;28;20495;-77
2022/01/25 04:30:23;;;;;;;92.63;38.28;;;;;;;1.52;100.00;101846.81;5034019;28;20481;-77
2022/01/25 04:32:54;;;;;;;81.88;36.17;;;;;;;1.48;100.00;101855.44;5032758;28;20021;-77
2022/01/25 04:35:59;;;;;;;89.78;39.85;;;;;;;1.44;100.00;101850.06;5032774;28;20029;-77
2022/01/25 04:49:15;;;;;;;84.15;34.30;;;;;;;1.37;100.00;101845.44;5034875;28;19915;-78
2022/01/25 04:54:24;;;;;;;83.75;37.05;;;;;;;1.35;100.00;101849.78;5033623;28;20403;-77
2022/01/25 05:02:36;;;;;;;81.13;33.95;;;;;;;1.41;100.00;101847.38;5033284;28;20044;-77
2022/01/25 05:05:05;;;;;;;85.43;36.60;;;;;;;1.37;100.00;101848.09;5033993;28;20041;-77
2022/01/25 05:07:38;;;;;;;85.70;37.17;;;;;;;1.36;100.00;101842.78;5034565;28;20393;-77
2022/01/25 05:10:04;;;;;;;;;;;;;;;1.35;100.00;101836.63;5034765;28;20029;-78
2022/01/25 05:15:49;;;;;;;80.15;35.60;;;;;;;1.31;100.00;101838.28;5035049;28;20096;-78
2022/01/25 05:18:17;;;;;;;84.45;36.40;;;;;;;1.30;100.00;101840.84;5035041;28;20025;-78
2022/01/25 05:23:26;;;;;;;82.70;36.20;;;;;;;1.30;100.00;101841.72;5035058;28;20163;-77
2022/01/25 05:25:52;;;;;;;83.05;35.90;;;;;;;1.29;100.00;101839.94;5033484;28;20053;-77
2022/01/25 05:28:17;;;;;;;86.13;36.95;;;;;;;1.33;100.00;101846.22;5033421;28;20044;-77
2022/01/25 05:30:43;;;;;;;82.47;34.80;;;;;;;1.30;100.00;101840.84;5031437;28;20017;-77
2022/01/25 05:33:08;;;;;;;84.90;35.63;;;;;;;1.26;100.00;101838.94;5033185;28;20116;-77
2022/01/25 05:35:33;;;;;;;83.50;35.78;;;;;;;1.25;100.00;101843.31;5032229;28;20021;-77
2022/01/25 05:37:59;;;;;;;84.25;34.88;;;;;;;1.25;100.00;101843.31;5031505;28;20121;-77
2022/01/25 05:40:45;;;;;;;85.07;35.60;;;;;;;1.24;100.00;101843.28;5031343;28;20151;-78
2022/01/25 05:46:12;;;;;;;77.40;33.20;;;;;;;1.24;100.00;101848.53;5032623;28;20017;-77
2022/01/25 05:48:37;;;;;;;81.60;34.42;;;;;;;1.26;100.00;101852.09;5030946;28;20064;-77
2022/01/25 05:51:02;;;;;;;83.57;34.67;;;;;;;1.22;100.00;101852.00;5031196;28;20044;-77
2022/01/25 05:53:28;;;;;;;85.47;36.22;;;;;;;1.21;100.00;101850.19;5032648;28;20032;-76
2022/01/25 05:55:53;;;;;;;80.78;33.80;;;;;;;1.22;100.00;101844.09;5033024;28;20032;-77
2022/01/25 05:58:19;;;;;;;81.00;34.83;;;;;;;1.22;100.00;101841.47;5032735;28;20068;-77
2022/01/25 06:00:45;;;;;;;80.53;33.92;;;;;;;1.20;100.00;101844.91;5032712;28;20049;-77
2022/01/25 06:03:10;;;;;;;80.93;33.90;;;;;;;1.16;100.00;101843.00;5032951;28;20037;-77
2022/01/25 06:15:41;;;;;;;82.93;34.35;;;;;;;1.19;100.00;101853.63;5032323;23;20052;-70
2022/01/25 06:18:06;;;;;;;85.00;34.38;;;;;;;1.18;100.00;101854.47;5032823;28;20030;-70
2022/01/25 06:20:33;;;;;;;82.50;36.38;;;;;;;1.13;100.00;101849.06;5032927;28;20429;-70
2022/01/25 06:22:59;;;;;;;74.50;31.48;;;;;;;1.12;100.00;101847.25;5033004;28;20433;-70
2022/01/25 06:25:24;;;;;;;80.32;33.58;;;;;;;1.17;100.00;101852.69;5032719;28;20018;-70
2022/01/25 06:27:50;;;;;;;81.68;34.38;;;;;;;1.16;100.00;101854.41;5033271;28;20019;-70
2022/01/25 06:30:17;;;;;;;80.57;34.30;;;;;;;1.11;100.00;101850.72;5031392;28;20498;-70
2022/01/25 06:32:44;;;;;;;73.22;32.30;;;;;;;1.15;100.00;101862.25;5032838;28;20060;-70
2022/01/25 06:35:10;;;;;;;70.75;31.88;;;;;;;1.15;100.00;101860.53;5032680;28;20022;-70
2022/01/25 06:37:36;;;;;;;70.30;30.55;;;;;;;1.11;100.00;101858.63;5031414;28;20109;-71
2022/01/25 06:40:04;;;;;;;72.03;31.70;;;;;;;1.12;100.00;101863.03;5031343;28;20112;-71
2022/01/25 06:42:31;;;;;;;67.97;29.58;;;;;;;1.16;100.00;101857.03;5032432;28;20022;-70
2022/01/25 06:45:01;;;;;;;64.97;29.60;;;;;;;1.20;100.00;101861.59;5032541;28;20049;-71
2022/01/25 06:47:26;;;;;;;64.00;27.25;;;;;;;1.22;100.00;101867.78;5032678;28;20482;-71
2022/01/25 06:49:52;;;;;;;61.05;27.33;;;;;;;1.15;100.00;101867.53;5032600;28;20037;-70
2022/01/25 06:52:17;;;;;;;56.80;26.20;;;;;;;1.10;100.00;101870.00;5032465;28;20021;-71
2022/01/25 06:54:42;;;;;;;59.03;25.25;;;;;;;1.15;100.00;101867.53;5032520;28;20022;-70
2022/01/25 06:57:08;;;;;;;55.75;26.42;;;;;;;1.14;100.00;101866.63;5032767;28;20048;-71
2022/01/25 06:59:34;;;;;;;63.42;27.13;;;;;;;1.13;100.00;101869.22;5033307;28;20489;-71
2022/01/25 07:01:59;;;;;;;59.22;26.33;;;;;;;1.20;100.00;101872.09;5034720;28;20510;-72
2022/01/25 07:04:24;;;;;;;63.13;26.88;;;;;;;1.18;100.00;101867.63;5036020;28;20029;-72
2022/01/25 07:06:50;;;;;;;66.50;28.00;;;;;;;1.23;100.00;101873.94;5035986;28;20032;-72
2022/01/25 07:09:15;;;;;;;60.92;27.20;;;;;;;1.23;100.00;101871.31;5034739;28;20031;-72
2022/01/25 07:11:41;;;;;;;60.28;27.00;;;;;;;1.28;100.00;101879.38;5034602;28;20025;-72
2022/01/25 07:14:06;;;;;;;57.95;26.77;;;;;;;1.31;100.00;101874.22;5034646;28;20039;-72
2022/01/25 07:16:31;;;;;;;56.65;25.20;;;;;;;1.32;100.00;101876.00;5035727;28;20083;-72
2022/01/25 07:18:56;;;;;;;59.15;26.73;;;;;;;1.34;100.00;101875.19;5035786;28;20018;-72
2022/01/25 07:21:22;;;;;;;58.08;26.42;;;;;;;1.33;100.00;101877.78;5034275;28;20025;-72
2022/01/25 07:23:47;;;;;;;62.03;26.92;;;;;;;1.38;100.00;101876.22;5034437;28;20029;-72
2022/01/25 07:26:13;;;;;;;59.47;25.75;;;;;;;1.42;100.00;101877.19;5035947;28;20386;-72
2022/01/25 07:28:38;;;;;;;64.38;27.92;;;;;;;1.41;100.00;101878.97;5035613;28;20021;-72
2022/01/25 07:31:03;;;;;;;62.55;25.27;;;;;;;1.41;100.00;101870.16;5035523;28;20025;-72
2022/01/25 07:33:29;;;;;;;53.40;23.17;;;;;;;1.37;100.00;101871.78;5035713;28;20029;-72
2022/01/25 07:35:55;;;;;;;53.22;23.23;;;;;;;1.39;100.00;101877.97;5035728;28;20018;-72
2022/01/25 07:38:20;;;;;;;50.40;22.65;;;;;;;1.40;100.00;101874.53;5035818;28;20120;-72
2022/01/25 07:40:46;;;;;;;52.45;22.95;;;;;;;1.36;100.00;101883.16;5034154;28;20068;-72
2022/01/25 07:43:11;;;;;;;51.95;23.52;;;;;;;1.41;100.00;101881.59;5035587;28;20052;-72
2022/01/25 07:45:37;;;;;;;53.03;22.98;;;;;;;1.38;100.00;101878.84;5035302;28;20033;-72
2022/01/25 07:48:05;;;;;;;52.00;22.20;;;;;;;1.37;100.00;101877.03;5035350;28;20045;-72
2022/01/25 07:50:31;;;;;;;50.60;22.33;;;;;;;1.37;100.00;101884.94;5035374;28;20119;-72
2022/01/25 07:52:57;;;;;;;42.45;19.63;;;;;;;1.37;100.00;101879.66;5036284;28;20053;-72
2022/01/25 07:55:22;;;;;;;44.25;19.88;;;;;;;1.39;100.00;101882.38;5035060;28;20420;-72
2022/01/25 07:57:47;;;;;;;49.20;21.92;;;;;;;1.37;100.00;101877.03;5035087;28;20053;-72
2022/01/25 08:00:13;;;;;;;48.50;21.23;;;;;;;1.42;100.00;101883.34;5034971;28;20025;-72
2022/01/25 08:02:41;;;;;;;43.72;19.88;;;;;;;1.46;100.00;101884.38;5034223;28;20025;-73
2022/01/25 08:05:06;;;;;;;50.35;21.63;;;;;;;1.47;100.00;101875.59;5034986;28;20171;-72
2022/01/25 08:07:32;;;;;;;52.92;22.65;;;;;;;1.45;100.00;101883.47;5035126;28;20117;-72
2022/01/25 08:09:57;;;;;;;49.40;22.05;;;;;;;1.43;100.00;101882.53;5033553;28;20021;-72
2022/01/25 08:12:22;;;;;;;46.28;19.55;;;;;;;1.47;100.00;101877.38;5034657;28;20216;-72
2022/01/25 08:14:48;;;;;;;48.40;22.17;;;;;;;1.50;100.00;101872.19;5033354;28;20478;-72
2022/01/25 08:17:16;;;;;;;41.88;18.35;;;;;;;1.52;100.00;101883.69;5034947;28;20103;-72
2022/01/25 08:19:43;;;;;;;42.10;17.95;;;;;;;1.56;100.00;101880.31;5034649;28;20483;-72
2022/01/25 08:22:08;;;;;;;44.45;20.73;;;;;;;1.53;100.00;101881.09;5033199;28;20028;-72
2022/01/25 08:24:33;;;;;;;48.78;21.92;;;;;;;1.51;100.00;101881.88;5034539;28;20029;-72
2022/01/25 08:26:59;;;;;;;58.85;23.02;;;;;;;1.52;100.00;101875.78;5034524;28;20406;-73
2022/01/25 08:29:24;;;;;;;53.45;22.70;;;;;;;1.52;100.00;101878.41;5034431;28;20052;-72
2022/01/25 08:31:49;;;;;;;49.85;22.30;;;;;;;1.53;100.00;101874.94;5034380;28;20071;-72
2022/01/25 08:34:15;;;;;;;53.08;21.75;;;;;;;1.53;100.00;101877.56;5034472;28;20398;-72
2022/01/25 08:36:40;;;;;;;54.50;23.50;;;;;;;1.53;100.00;101874.94;5034317;28;20033;-72
2022/01/25 08:39:06;;;;;;;50.30;22.17;;;;;;;1.52;100.00;101873.16;5034306;28;20032;-72
2022/01/25 08:41:32;;;;;;;49.40;21.02;;;;;;;1.53;100.00;101875.81;5034108;28;20076;-72
2022/01/25 08:43:57;;;;;;;49.88;20.75;;;;;;;1.56;100.00;101878.56;5032916;28;20025;-72
2022/01/25 08:46:23;;;;;;;52.63;23.65;;;;;;;1.58;100.00;101878.59;5034402;28;20371;-72
2022/01/25 08:48:49;;;;;;;49.85;22.67;;;;;;;1.62;100.00;101885.78;5034056;28;20482;-72
2022/01/25 08:51:15;;;;;;;52.90;22.45;;;;;;;1.61;100.00;101881.34;5033981;28;20116;-72
2022/01/25 08:53:40;;;;;;;52.40;22.13;;;;;;;1.63;100.00;101890.19;5034234;28;20025;-72
2022/01/25 08:56:06;;;;;;;53.22;23.27;;;;;;;1.56;100.00;101889.09;5033992;28;20124;-72
2022/01/25 08:58:31;;;;;;;56.53;23.27;;;;;;;1.54;100.00;101882.91;5033963;28;20025;-72
2022/01/25 09:00:57;;;;;;;57.28;23.33;;;;;;;1.70;100.00;101888.63;5033697;28;20068;-72
2022/01/25 09:03:23;;;;;;;47.00;20.83;;;;;;;1.63;100.00;101887.56;5034088;28;20025;-73
2022/01/25 09:05:48;;;;;;;44.22;19.83;;;;;;;1.66;100.00;101892.03;5034099;28;20025;-72
2022/01/25 09:08:20;;;;;;;50.25;22.25;;;;;;;1.68;100.00;101892.97;5034025;28;20056;-72
2022/01/25 09:10:45;;;;;;;55.67;22.83;;;;;;;1.71;100.00;101894.81;5032439;28;20029;-72
2022/01/25 09:13:10;;;;;;;52.85;21.90;;;;;;;1.69;100.00;101892.13;5033868;28;20021;-72
2022/01/25 09:15:35;;;;;;;52.15;21.75;;;;;;;1.66;100.00;101890.31;5033290;28;20060;-72
2022/01/25 09:18:01;;;;;;;54.25;22.77;;;;;;;1.69;100.00;101900.03;5032259;28;20059;-72
2022/01/25 09:20:26;;;;;;;53.53;21.10;;;;;;;1.72;100.00;101901.88;5032104;28;20572;-72
2022/01/25 09:22:52;;;;;;;53.88;22.50;;;;;;;1.70;100.00;101899.19;5031540;28;20116;-72
2022/01/25 09:25:18;;;;;;;50.90;21.15;;;;;;;1.74;100.00;101895.81;5033464;28;20394;-72
2022/01/25 09:27:44;;;;;;;45.88;20.15;;;;;;;1.77;100.00;101892.38;5033658;28;20028;-72
2022/01/25 09:30:09;;;;;;;47.92;21.20;;;;;;;1.80;100.00;101905.66;5033606;28;20033;-72
2022/01/25 09:32:35;;;;;;;50.78;20.73;;;;;;;1.83;100.00;101905.75;5033593;28;20039;-72
2022/01/25 09:35:00;;;;;;;45.60;20.92;;;;;;;1.80;100.00;101900.41;5033316;28;20501;-72
2022/01/25 09:37:25;;;;;;;48.67;21.50;;;;;;;1.78;100.00;101904.69;5033542;28;20079;-72
2022/01/25 09:39:51;;;;;;;51.47;21.13;;;;;;;1.82;100.00;101911.88;5033404;28;20021;-72
2022/01/25 09:42:16;;;;;;;47.90;20.42;;;;;;;1.82;100.00;101914.50;5033106;28;20022;-73
2022/01/25 09:44:43;;;;;;;52.85;21.70;;;;;;;1.84;100.00;101915.44;5033439;28;20053;-72
2022/01/25 09:47:10;;;;;;;51.97;22.25;;;;;;;1.82;100.00;101919.78;5033464;28;20548;-72
2022/01/25 09:49:36;;;;;;;49.28;20.98;;;;;;;1.82;100.00;101914.50;5033150;28;20398;-72
2022/01/25 09:52:04;;;;;;;52.67;22.42;;;;;;;1.81;100.00;101910.06;5033061;28;20160;-73
2022/01/25 09:54:31;;;;;;;50.20;21.65;;;;;;;1.82;100.00;101914.50;5033122;28;20451;-72
2022/01/25 09:56:56;;;;;;;50.15;21.45;;;;;;;1.84;100.00;101917.19;5033343;28;20064;-72
2022/01/25 09:59:23;;;;;;;49.63;21.75;;;;;;;1.88;100.00;101922.59;5031737;28;20072;-72
2022/01/25 10:01:48;;;;;;;49.38;21.45;;;;;;;1.88;100.00;101914.69;5031598;28;20022;-72
2022/01/25 10:04:39;;;;;;;48.92;21.40;;;;;;;1.89;100.00;101924.41;5033153;28;20029;-72
2022/01/25 10:07:05;;;;;;;47.25;19.92;;;;;;;1.91;100.00;101928.84;5033026;28;20049;-72
2022/01/25 10:09:32;;;;;;;55.67;21.60;;;;;;;1.92;100.00;101925.34;5033112;28;20079;-72
2022/01/25 10:11:57;;;;;;;55.08;23.10;;;;;;;1.88;100.00;101919.09;5032918;28;20018;-72
2022/01/25 10:14:23;;;;;;;53.35;22.73;;;;;;;1.86;100.00;101924.28;5031504;28;20025;-72
2022/01/25 10:16:56;;;;;;;53.22;22.58;;;;;;;1.85;100.00;101919.88;5031598;28;20029;-72
2022/01/25 10:19:25;;;;;;;54.22;23.48;;;;;;;1.84;100.00;101919.81;5032983;28;20487;-72
2022/01/25 10:21:52;;;;;;;54.72;23.00;;;;;;;1.87;100.00;101920.81;5032688;28;20022;-72
2022/01/25 10:24:22;;;;;;;51.33;22.40;;;;;;;1.91;100.00;101929.69;5031590;28;20095;-72
2022/01/25 10:26:53;;;;;;;53.95;21.90;;;;;;;1.90;100.00;101922.66;5033183;28;20389;-72
2022/01/25 10:29:26;;;;;;;52.72;21.95;;;;;;;1.93;100.00;101924.50;5033134;28;20022;-72
2022/01/25 10:32:05;;;;;;;50.33;22.70;;;;;;;1.94;100.00;101923.63;5031476;28;20497;-72
2022/01/25 10:34:45;;;;;;;49.72;21.75;;;;;;;1.87;100.00;101934.00;5033513;28;20036;-72
2022/01/25 10:37:18;;;;;;;53.78;22.50;;;;;;;1.98;100.00;101925.53;5036947;28;20026;-72
2022/01/25 10:39:46;;;;;;;55.72;22.67;;;;;;;1.92;100.00;101920.06;5036608;28;20036;-72
2022/01/25 10:42:16;;;;;;;48.22;22.52;;;;;;;1.94;100.00;101923.63;5036434;28;20025;-72
2022/01/25 10:44:46;;;;;;;51.15;21.33;;;;;;;1.98;100.00;101921.19;5036507;28;20051;-72
2022/01/25 10:47:12;;;;;;;47.67;20.30;;;;;;;2.05;100.00;101929.25;5036408;28;20421;-72
2022/01/25 10:49:48;;;;;;;48.60;20.80;;;;;;;2.09;100.00;101918.88;5036372;28;20026;-72
2022/01/25 10:52:25;;;;;;;55.33;23.63;;;;;;;2.08;100.00;101927.63;5036234;28;20018;-72
2022/01/25 10:54:51;;;;;;;56.53;22.38;;;;;;;2.10;100.00;101918.03;5036581;28;20470;-72
2022/01/25 10:57:19;;;;;;;52.65;22.17;;;;;;;2.06;100.00;101929.31;5036202;28;20083;-73
2022/01/25 10:59:59;;;;;;;49.95;21.42;;;;;;;2.01;100.00;101925.66;5036221;28;20509;-72
2022/01/25 11:02:25;;;;;;;49.38;21.55;;;;;;;2.01;100.00;101918.63;5034775;28;20032;-72
2022/01/25 11:04:52;;;;;;;54.97;22.08;;;;;;;2.15;100.00;101919.91;5036107;28;20022;-72
2022/01/25 11:07:18;;;;;;;55.30;23.55;;;;;;;2.09;100.00;101918.88;5036028;28;20036;-72
2022/01/25 11:09:46;;;;;;;56.33;23.98;;;;;;;2.05;100.00;101921.34;5034725;28;20029;-72
2022/01/25 11:12:15;;;;;;;46.75;21.45;;;;;;;2.01;100.00;101909.84;5034670;28;20175;-72
2022/01/25 11:14:53;;;;;;;53.13;22.52;;;;;;;2.05;100.00;101917.00;5034528;28;20021;-72
2022/01/25 11:17:23;;;;;;;51.88;21.55;;;;;;;2.09;100.00;101916.22;5036039;28;20478;-72
2022/01/25 11:19:49;;;;;;;49.63;20.55;;;;;;;2.06;100.00;101918.75;5034760;28;20025;-72
2022/01/25 11:22:19;;;;;;;50.38;21.38;;;;;;;2.02;100.00;101914.25;5035952;28;20423;-72
2022/01/25 11:24:49;;;;;;;49.97;21.75;;;;;;;2.08;100.00;101910.91;5035764;28;20017;-72
2022/01/25 11:27:14;;;;;;;48.38;19.45;;;;;;;2.04;100.00;101917.81;5035626;28;20029;-72
2022/01/25 11:29:41;;;;;;;44.70;19.50;;;;;;;2.14;100.00;101910.22;5035634;28;20437;-72
2022/01/25 11:32:10;;;;;;;39.60;16.77;;;;;;;2.05;100.00;101906.44;5034298;28;20482;-72
2022/01/25 11:34:38;;;;;;;43.85;19.02;;;;;;;1.99;100.00;101903.59;5035546;28;20083;-74
2022/01/25 11:37:07;;;;;;;221.30;74.55;;;;;;;1.97;100.00;101906.19;5035516;28;20022;-75
2022/01/25 11:39:34;;;;;;;46.53;20.70;;;;;;;1.95;100.00;101904.38;5035598;28;20586;-73
2022/01/25 11:42:02;;;;;;;50.85;22.25;;;;;;;1.88;100.00;101904.16;5035287;28;20037;-73
2022/01/25 11:44:29;;;;;;;51.88;21.75;;;;;;;1.86;100.00;101892.69;5035542;28;20029;-72
2022/01/25 11:47:22;;;;;;;54.10;22.67;;;;;;;1.92;100.00;101894.63;5033432;28;20116;-74
2022/01/25 11:49:57;;;;;;;48.63;21.50;;;;;;;1.88;100.00;101893.63;5033451;28;20498;-72
2022/01/25 11:52:25;;;;;;;56.28;22.33;;;;;;;1.87;100.00;101894.47;5035176;28;20261;-72
2022/01/25 11:54:54;;;;;;;54.92;21.77;;;;;;;1.89;100.00;101890.16;5035153;28;20025;-72
2022/01/25 11:57:25;;;;;;;47.95;19.63;;;;;;;2.01;100.00;101892.25;5033812;28;20052;-72
2022/01/25 11:59:58;;;;;;;50.15;22.40;;;;;;;2.00;100.00;101893.13;5035133;28;20028;-72
2022/01/25 12:02:43;;;;;;;54.95;21.77;;;;;;;2.10;100.00;101890.78;5035228;28;20452;-72
2022/01/25 12:05:15;;;;;;;48.28;21.15;;;;;;;1.97;100.00;101889.50;5035032;28;20025;-72
2022/01/25 12:08:08;;;;;;;47.53;20.52;;;;;;;2.05;100.00;101885.38;5065737;22;20509;-84
2022/01/25 12:10:40;;;;;;;55.10;21.73;;;;;;;2.10;100.00;101881.13;5018282;28;20084;-85
2022/01/25 12:13:25;;;;;;;53.03;20.50;;;;;;;2.14;100.00;101879.47;5018824;28;20467;-83
2022/01/25 12:16:27;;;;;;;45.88;20.95;;;;;;;2.05;100.00;101877.47;5015635;28;20028;-83
2022/01/25 12:18:53;;;;;;;49.60;20.88;;;;;;;2.08;100.00;101880.19;5017739;28;20014;-83
2022/01/25 12:21:47;;;;;;;48.72;20.77;;;;;;;2.15;100.00;101875.09;5017720;28;20438;-82
2022/01/25 12:24:20;;;;;;;43.45;19.90;;;;;;;2.21;100.00;101877.94;5014743;28;20022;-84
2022/01/25 12:27:06;;;;;;;51.35;20.23;;;;;;;2.09;100.00;101870.53;5015596;28;20069;-82
2022/01/25 12:29:46;;;;;;;50.08;20.17;;;;;;;2.09;100.00;101874.06;5017197;28;20017;-83
2022/01/25 12:32:35;;;;;;;46.65;20.40;;;;;;;2.04;100.00;101867.75;5015638;28;20018;-81
2022/01/25 12:35:14;;;;;;;49.92;20.65;;;;;;;2.09;100.00;101859.97;5016414;28;20109;-83
2022/01/25 12:37:45;;;;;;;46.63;19.65;;;;;;;2.16;100.00;101866.34;5017341;28;20502;-82
2022/01/25 12:40:26;;;;;;;47.83;19.13;;;;;;;2.09;100.00;101862.63;5017374;28;20064;-82
2022/01/25 12:43:02;;;;;;;50.72;20.67;;;;;;;2.36;100.00;101855.50;5024645;28;20458;-82
2022/01/25 12:45:34;;;;;;;44.65;19.55;;;;;;;2.42;100.00;101839.88;5027252;28;20486;-82
2022/01/25 12:48:07;;;;;;;39.10;16.73;;;;;;;2.34;100.00;101845.84;5026797;28;20089;-83
2022/01/25 12:50:35;;;;;;;41.40;17.77;;;;;;;2.47;100.00;101843.56;5027504;28;20085;-81
2022/01/25 12:53:03;;;;;;;41.75;17.23;;;;;;;2.43;100.00;101844.28;5019943;28;20030;-81
2022/01/25 12:55:34;;;;;;;43.88;18.33;;;;;;;2.19;100.00;101840.09;5020899;28;20483;-82
2022/01/25 12:58:01;;;;;;;44.22;19.02;;;;;;;2.17;100.00;101839.13;5017875;28;20117;-82
2022/01/25 13:00:29;;;;;;;51.72;20.40;;;;;;;2.18;100.00;101838.31;5020805;28;20068;-82